Time;durP1;ratioP1;P1;durP2;ratioP2;P2;SDS_P1;SDS_P2;PMS_P1;PMS_P2;Temp;Humidity;BMP_temperature;BMP_pressure;BME280_temperature;BME280_humidity;BME280_pressure;Samples;Min_cycle;Max_cycle;Signal;HPM_P1;HPM_P2
2021/10/13 00:01:49;;;;;;;9.30;1.20;;;;;;;9.42;86.89;102350.78;5054932;28;20108;-47
2021/10/13 00:04:14;;;;;;;7.85;1.50;;;;;;;9.44;87.28;102337.22;5072797;28;20028;-50
2021/10/13 00:06:39;;;;;;;6.63;1.33;;;;;;;9.50;87.10;102339.34;5055027;28;20051;-50
2021/10/13 00:09:05;;;;;;;8.30;1.42;;;;;;;9.50;87.46;102343.88;5053365;28;20028;-48
2021/10/13 00:11:31;;;;;;;8.35;1.65;;;;;;;9.52;87.86;102344.59;5052283;28;20482;-49
2021/10/13 00:13:56;;;;;;;5.05;1.17;;;;;;;9.53;87.47;102331.03;5052721;28;20047;-50
2021/10/13 00:16:22;;;;;;;4.95;1.35;;;;;;;9.51;87.27;102330.31;5072540;28;20035;-47
2021/10/13 00:18:47;;;;;;;9.77;1.88;;;;;;;9.51;86.91;102332.16;5072873;28;20048;-45
2021/10/13 00:21:12;;;;;;;5.25;1.13;;;;;;;9.49;87.25;102326.06;5072515;28;20111;-45
2021/10/13 00:23:38;;;;;;;5.93;1.73;;;;;;;9.51;87.98;102324.94;5071625;28;20056;-45
2021/10/13 00:26:03;;;;;;;10.27;1.42;;;;;;;9.54;88.08;102327.34;5072579;28;20086;-49
2021/10/13 00:28:28;;;;;;;6.30;1.30;;;;;;;9.58;87.15;102344.03;5054753;28;20025;-47
2021/10/13 00:30:54;;;;;;;7.75;1.40;;;;;;;9.70;87.14;102347.47;5072468;28;20108;-48
2021/10/13 00:33:19;;;;;;;13.48;2.25;;;;;;;9.80;86.72;102346.47;5049758;28;20478;-47
2021/10/13 00:35:44;;;;;;;11.05;2.15;;;;;;;9.73;86.51;102337.25;5052475;28;20029;-52
2021/10/13 00:38:10;;;;;;;9.73;1.80;;;;;;;9.70;87.60;102337.53;5052484;28;20025;-54
2021/10/13 00:40:35;;;;;;;12.15;1.80;;;;;;;9.68;88.02;102336.81;5052658;28;20400;-56
2021/10/13 00:43:00;;;;;;;12.25;1.92;;;;;;;9.68;87.71;102344.91;5072383;28;20040;-53
2021/10/13 00:45:26;;;;;;;7.13;1.42;;;;;;;9.84;87.58;102349.72;5072204;28;20036;-49
2021/10/13 00:47:51;;;;;;;10.13;1.83;;;;;;;9.86;86.96;102345.06;5072259;28;20024;-47
2021/10/13 00:50:17;;;;;;;10.85;1.70;;;;;;;9.76;87.77;102347.72;5072178;28;20036;-49
2021/10/13 00:52:43;;;;;;;8.10;1.25;;;;;;;9.69;88.52;102346.63;5072259;28;20021;-48
2021/10/13 00:55:10;;;;;;;12.63;1.60;;;;;;;9.60;88.80;102355.50;5072298;28;20064;-47
2021/10/13 00:57:36;;;;;;;8.88;1.98;;;;;;;9.65;88.56;102345.19;5071976;28;20195;-47
2021/10/13 01:00:03;;;;;;;8.98;2.47;;;;;;;9.64;88.38;102348.88;5061672;28;20116;-46
2021/10/13 01:02:33;;;;;;;18.02;10.98;;;;;;;9.60;88.66;102359.03;5052200;28;20025;-47
2021/10/13 01:05:26;;;;;;;18.55;7.78;;;;;;;9.56;89.15;102352.25;5034534;28;20029;-49
2021/10/13 01:08:09;;;;;;;15.60;7.43;;;;;;;9.57;90.06;102343.19;5059958;28;20043;-50
2021/10/13 01:10:43;;;;;;;15.18;5.95;;;;;;;9.59;90.05;102351.13;5034245;28;20099;-48
2021/10/13 01:13:13;;;;;;;13.85;6.38;;;;;;;9.54;89.74;102354.22;5050699;28;20029;-50
2021/10/13 01:16:03;;;;;;;21.45;10.75;;;;;;;9.53;89.44;102352.53;5065066;28;20036;-47
2021/10/13 01:18:35;;;;;;;19.20;10.25;;;;;;;9.54;90.15;102351.53;5054051;28;20024;-47
2021/10/13 01:21:44;;;;;;;18.58;7.60;;;;;;;9.51;90.18;102350.97;5054218;28;20070;-46
2021/10/13 01:24:21;;;;;;;13.77;8.10;;;;;;;9.51;90.22;102342.91;5028281;28;20502;-46
2021/10/13 01:27:02;;;;;;;16.30;6.93;;;;;;;9.51;89.94;102343.75;5057942;28;20111;-47
2021/10/13 01:29:30;;;;;;;16.40;8.20;;;;;;;9.51;89.48;102353.66;5075735;28;20154;-48
2021/10/13 01:32:01;;;;;;;;;;;;;;;9.50;90.02;102360.00;5076390;28;20391;-48
2021/10/13 01:34:28;;;;;;;14.85;5.63;;;;;;;9.50;89.98;102351.94;5075669;28;19987;-47
2021/10/13 01:37:06;;;;;;;13.85;6.00;;;;;;;9.53;89.87;102354.34;5057683;28;20048;-47
2021/10/13 01:39:32;;;;;;;12.95;4.78;;;;;;;9.53;89.81;102348.97;5075083;28;20111;-47
2021/10/13 01:42:00;;;;;;;14.20;5.40;;;;;;;9.55;90.40;102355.91;5044585;28;20066;-47
2021/10/13 01:44:27;;;;;;;8.85;3.70;;;;;;;9.60;90.14;102358.19;5038635;28;20025;-48
2021/10/13 01:46:53;;;;;;;8.57;2.80;;;;;;;9.65;89.91;102372.06;5055560;28;20071;-46
2021/10/13 01:49:20;;;;;;;19.48;4.95;;;;;;;9.83;89.39;102374.94;5055123;28;20427;-46
2021/10/13 01:51:47;;;;;;;12.80;7.00;;;;;;;9.85;88.63;102364.88;5037579;28;20124;-47
2021/10/13 01:54:13;;;;;;;17.40;8.30;;;;;;;9.76;89.02;102366.56;5037506;28;20079;-46
2021/10/13 01:56:39;;;;;;;12.85;7.03;;;;;;;9.78;88.55;102372.66;5038619;28;20419;-46
2021/10/13 01:59:07;;;;;;;16.55;7.90;;;;;;;9.70;89.17;102375.19;5057535;28;20033;-46
2021/10/13 02:01:33;;;;;;;14.48;6.13;;;;;;;9.66;89.53;102368.38;5075041;28;20067;-48
2021/10/13 02:04:02;;;;;;;14.20;6.95;;;;;;;9.64;89.51;102365.00;5075356;28;20082;-48
2021/10/13 02:06:28;;;;;;;14.43;7.38;;;;;;;9.63;89.93;102368.66;5075163;28;20524;-48
2021/10/13 02:08:54;;;;;;;11.30;6.75;;;;;;;9.59;89.87;102359.19;5040667;28;20028;-50
2021/10/13 02:11:23;;;;;;;13.32;8.32;;;;;;;9.54;90.00;102358.75;5057592;28;20176;-47
2021/10/13 02:13:49;;;;;;;16.92;8.80;;;;;;;9.50;89.93;102363.53;5075106;28;20021;-45
2021/10/13 02:16:14;;;;;;;13.63;8.43;;;;;;;9.43;89.70;102360.56;5056402;28;20024;-47
2021/10/13 02:18:40;;;;;;;20.40;10.18;;;;;;;9.37;89.95;102362.91;5057054;28;20071;-46
2021/10/13 02:21:06;;;;;;;16.65;10.35;;;;;;;9.32;90.13;102366.03;5063264;28;20539;-47
2021/10/13 02:23:33;;;;;;;16.83;9.73;;;;;;;9.27;89.88;102373.66;5035112;28;20029;-47
2021/10/13 02:26:07;;;;;;;15.68;9.32;;;;;;;9.21;89.88;102382.25;5050302;28;20506;-47
2021/10/13 02:28:38;;;;;;;16.83;8.23;;;;;;;9.20;89.86;102383.25;5075018;28;20028;-47
2021/10/13 02:31:03;;;;;;;15.80;9.93;;;;;;;9.23;90.00;102388.34;5056836;28;20032;-50
2021/10/13 02:33:29;;;;;;;17.45;11.13;;;;;;;9.25;90.68;102390.91;5074152;28;20155;-50
2021/10/13 02:35:55;;;;;;;16.98;10.57;;;;;;;9.27;91.13;102396.97;5074603;28;20089;-49
2021/10/13 02:38:20;;;;;;;16.70;11.20;;;;;;;9.30;90.90;102384.13;5074694;28;20032;-47
2021/10/13 02:40:45;;;;;;;20.92;9.88;;;;;;;9.32;91.14;102386.66;5069163;28;20041;-48
2021/10/13 02:43:11;;;;;;;13.07;6.93;;;;;;;9.30;90.58;102386.81;5054612;28;20071;-48
2021/10/13 02:45:39;;;;;;;15.10;6.78;;;;;;;9.31;90.46;102380.44;5054379;28;20025;-49
2021/10/13 02:48:17;;;;;;;10.48;5.45;;;;;;;9.32;90.63;102384.84;5036735;28;20049;-51
2021/10/13 02:50:56;;;;;;;12.65;5.22;;;;;;;9.28;90.76;102375.34;5036698;28;20029;-48
2021/10/13 02:53:33;;;;;;;10.48;3.92;;;;;;;9.26;90.55;102371.94;5036936;28;20029;-50
2021/10/13 02:56:20;;;;;;;13.43;4.05;;;;;;;9.23;90.73;102372.22;5050266;28;20576;-50
2021/10/13 02:59:26;;;;;;;21.93;4.27;;;;;;;9.20;90.54;102372.50;5073512;28;20039;-49
2021/10/13 03:01:55;;;;;;;10.43;3.10;;;;;;;9.13;90.37;102371.31;5042469;28;20302;-47
2021/10/13 03:04:25;;;;;;;10.68;3.47;;;;;;;9.10;90.87;102375.13;5056039;28;20479;-48
2021/10/13 03:07:05;;;;;;;9.32;2.47;;;;;;;9.11;91.04;102384.03;5050668;28;20036;-50
2021/10/13 03:09:33;;;;;;;7.65;3.00;;;;;;;9.14;91.28;102389.16;5036225;28;20028;-47
2021/10/13 03:12:01;;;;;;;8.50;3.13;;;;;;;9.14;91.11;102386.47;5053983;28;20051;-46
2021/10/13 03:14:26;;;;;;;;;;;;;;;9.13;90.81;102393.66;5057971;28;20013;-47
2021/10/13 03:16:53;;;;;;;7.72;2.72;;;;;;;9.16;91.02;102400.59;5073718;28;20370;-47
2021/10/13 03:19:20;;;;;;;8.07;3.03;;;;;;;9.12;90.34;102413.47;5055787;28;20047;-47
2021/10/13 03:21:47;;;;;;;6.70;2.35;;;;;;;9.15;90.63;102406.97;5073675;28;20032;-47
2021/10/13 03:24:15;;;;;;;6.20;2.65;;;;;;;9.22;90.32;102402.75;5055916;28;20020;-47
2021/10/13 03:26:47;;;;;;;7.43;2.10;;;;;;;9.22;90.27;102406.28;5073557;28;20099;-51
2021/10/13 03:29:13;;;;;;;8.68;2.15;;;;;;;9.29;90.04;102411.13;5065761;28;20041;-49
2021/10/13 03:31:39;;;;;;;11.48;1.60;;;;;;;9.40;90.27;102413.69;5066202;28;20028;-50
2021/10/13 03:34:04;;;;;;;4.45;1.38;;;;;;;9.53;89.59;102419.72;5072999;28;20028;-48
2021/10/13 03:36:40;;;;;;;9.27;1.75;;;;;;;9.64;88.50;102413.38;5073319;28;20031;-49
2021/10/13 03:39:06;;;;;;;4.22;0.88;;;;;;;9.76;87.79;102411.41;5073367;28;20377;-48
2021/10/13 03:41:31;;;;;;;7.18;1.08;;;;;;;9.76;87.51;102412.25;5047944;28;20083;-49
2021/10/13 03:43:56;;;;;;;7.88;1.30;;;;;;;9.74;87.24;102408.88;5053064;28;20391;-47
2021/10/13 03:46:23;;;;;;;8.68;1.55;;;;;;;9.76;87.50;102401.50;5052494;28;20043;-50
2021/10/13 03:48:50;;;;;;;6.47;1.20;;;;;;;9.76;87.62;102406.88;5053225;28;20025;-49
2021/10/13 03:51:16;;;;;;;9.93;1.70;;;;;;;9.75;88.03;102394.44;5053060;28;20074;-50
2021/10/13 03:53:41;;;;;;;4.25;1.17;;;;;;;9.77;88.15;102400.53;5053090;28;20025;-47
2021/10/13 03:56:06;;;;;;;9.15;1.15;;;;;;;9.77;88.79;102403.22;5070031;28;20029;-47
2021/10/13 03:58:32;;;;;;;10.45;1.33;;;;;;;9.77;88.66;102400.53;5072892;28;20036;-49
2021/10/13 04:00:57;;;;;;;2.25;1.00;;;;;;;9.76;88.64;102401.50;5072786;28;20029;-48
2021/10/13 04:03:22;;;;;;;4.80;1.30;;;;;;;9.71;88.59;102397.53;5059775;28;20037;-49
2021/10/13 04:05:48;;;;;;;4.68;1.10;;;;;;;9.65;88.56;102398.94;5056111;28;20024;-50
2021/10/13 04:08:13;;;;;;;8.65;1.30;;;;;;;9.59;88.73;102399.50;5078163;28;20067;-50
2021/10/13 04:10:39;;;;;;;7.93;1.10;;;;;;;9.53;89.10;102395.53;5093016;28;20043;-47
2021/10/13 04:13:04;;;;;;;10.25;1.13;;;;;;;9.41;88.38;102397.47;5092982;28;20028;-48
2021/10/13 04:15:29;;;;;;;14.55;2.08;;;;;;;9.50;87.97;102408.38;5092876;28;20080;-45
2021/10/13 04:17:55;;;;;;;5.00;1.10;;;;;;;9.36;87.94;102399.69;5075093;28;20020;-47
2021/10/13 04:20:20;;;;;;;10.18;1.60;;;;;;;9.26;88.54;102406.88;5070131;28;20036;-49
2021/10/13 04:22:45;;;;;;;9.05;1.42;;;;;;;9.13;88.97;102404.41;5052493;28;20125;-47
2021/10/13 04:25:11;;;;;;;8.60;1.55;;;;;;;9.08;89.64;102395.88;5052526;28;20067;-48
2021/10/13 04:27:36;;;;;;;6.07;1.65;;;;;;;9.00;89.31;102404.66;5056789;28;20056;-46
2021/10/13 04:30:04;;;;;;;5.28;1.80;;;;;;;8.94;89.55;102415.06;5072006;28;20024;-50
2021/10/13 04:32:30;;;;;;;10.13;1.30;;;;;;;8.86;89.97;102417.56;5072469;28;20025;-46
2021/10/13 04:34:55;;;;;;;7.50;1.40;;;;;;;8.81;90.13;102419.78;5072394;28;20365;-48
2021/10/13 04:37:20;;;;;;;5.78;2.10;;;;;;;8.75;90.19;102421.16;5072409;28;20025;-49
2021/10/13 04:39:46;;;;;;;8.00;3.75;;;;;;;8.71;90.52;102406.28;5072307;28;20427;-48
2021/10/13 04:42:11;;;;;;;6.78;3.80;;;;;;;8.67;90.60;102418.28;5060707;28;20475;-46
2021/10/13 04:44:37;;;;;;;9.18;3.72;;;;;;;8.65;91.05;102413.03;5066301;28;20481;-45
2021/10/13 04:47:03;;;;;;;5.93;2.40;;;;;;;8.65;91.25;102404.13;5079642;28;20036;-47
2021/10/13 04:49:29;;;;;;;7.05;2.70;;;;;;;8.66;91.42;102406.69;5072397;28;20024;-46
2021/10/13 04:51:55;;;;;;;6.38;2.65;;;;;;;8.70;91.34;102413.50;5072397;28;20471;-46
2021/10/13 04:54:21;;;;;;;6.18;2.45;;;;;;;8.75;91.80;102416.63;5069152;28;20581;-46
2021/10/13 04:56:46;;;;;;;8.05;2.55;;;;;;;8.78;91.50;102411.00;5054049;28;20033;-46
2021/10/13 04:59:11;;;;;;;8.32;2.53;;;;;;;8.89;91.44;102418.13;5056306;28;20075;-48
2021/10/13 05:01:37;;;;;;;5.75;2.63;;;;;;;8.95;91.78;102423.00;5082105;28;20039;-46
2021/10/13 05:04:02;;;;;;;4.60;2.65;;;;;;;9.11;91.08;102427.00;5096439;28;20030;-46
2021/10/13 05:06:27;;;;;;;7.45;3.17;;;;;;;9.12;90.68;102424.19;5096433;28;20020;-47
2021/10/13 05:08:53;;;;;;;6.03;3.10;;;;;;;9.21;90.04;102422.53;5096436;28;20024;-47
2021/10/13 05:11:18;;;;;;;12.05;4.10;;;;;;;9.20;89.84;102423.53;5093010;28;20821;-47
2021/10/13 05:13:43;;;;;;;7.43;3.50;;;;;;;9.17;90.08;102423.81;5076059;28;20020;-47
2021/10/13 05:16:09;;;;;;;10.23;4.38;;;;;;;9.13;90.18;102427.72;5076127;28;20031;-47
2021/10/13 05:18:34;;;;;;;13.75;5.00;;;;;;;9.11;90.37;102422.50;5075647;28;20024;-47
2021/10/13 05:21:00;;;;;;;16.52;4.20;;;;;;;9.09;90.48;102423.63;5075141;28;20028;-48
2021/10/13 05:23:25;;;;;;;6.30;3.55;;;;;;;9.09;89.94;102429.00;5074889;28;20024;-47
2021/10/13 05:25:50;;;;;;;10.90;4.40;;;;;;;9.10;90.47;102419.94;5075782;28;20108;-44
2021/10/13 05:28:16;;;;;;;10.85;4.05;;;;;;;9.13;90.66;102433.09;5062087;28;20053;-46
2021/10/13 05:30:41;;;;;;;7.82;3.75;;;;;;;9.15;91.06;102434.66;5073082;28;20252;-49
2021/10/13 05:33:06;;;;;;;8.93;3.22;;;;;;;9.21;90.96;102438.66;5071766;28;20037;-46
2021/10/13 05:35:32;;;;;;;7.97;3.20;;;;;;;9.26;90.47;102436.41;5057779;28;20021;-48
2021/10/13 05:37:57;;;;;;;6.95;2.83;;;;;;;9.29;90.58;102440.69;5069815;28;20051;-48
2021/10/13 05:40:22;;;;;;;12.20;3.58;;;;;;;9.34;90.41;102439.28;5073985;28;20100;-48
2021/10/13 05:42:48;;;;;;;9.48;2.85;;;;;;;9.38;89.14;102439.88;5074211;28;20020;-50
2021/10/13 05:45:13;;;;;;;8.13;1.92;;;;;;;9.48;88.45;102445.28;5073753;28;20027;-47
2021/10/13 05:47:39;;;;;;;8.40;1.80;;;;;;;9.55;86.94;102441.91;5074413;28;20024;-49
2021/10/13 05:50:05;;;;;;;7.88;1.50;;;;;;;9.70;84.62;102439.72;5063215;28;20074;-49
2021/10/13 05:52:30;;;;;;;8.57;1.83;;;;;;;9.82;83.30;102433.25;5072040;28;20024;-49
2021/10/13 05:54:56;;;;;;;6.00;1.10;;;;;;;9.92;81.71;102435.09;5053277;28;20074;-47
2021/10/13 05:57:21;;;;;;;10.25;1.30;;;;;;;10.00;81.28;102441.47;5060790;28;20032;-48
2021/10/13 05:59:55;;;;;;;5.43;1.02;;;;;;;10.06;80.73;102440.09;5073680;28;20016;-50
2021/10/13 06:02:20;;;;;;;4.90;1.15;;;;;;;10.14;81.40;102447.44;5064357;28;20039;-49
2021/10/13 06:04:45;;;;;;;9.27;1.27;;;;;;;10.20;81.91;102450.41;5069915;28;20178;-48
2021/10/13 06:07:11;;;;;;;4.30;1.05;;;;;;;10.24;81.54;102449.16;5073190;28;20036;-48
2021/10/13 06:09:36;;;;;;;5.97;0.95;;;;;;;10.29;81.06;102455.00;5060679;28;20079;-50
2021/10/13 06:12:02;;;;;;;5.22;1.88;;;;;;;10.44;82.24;102454.56;5073671;28;20081;-49
2021/10/13 06:14:27;;;;;;;6.82;1.40;;;;;;;10.38;82.48;102449.78;5069967;28;20058;-49
2021/10/13 06:16:53;;;;;;;12.60;1.80;;;;;;;10.41;81.97;102457.56;5072776;28;20166;-46
2021/10/13 06:19:18;;;;;;;14.05;1.63;;;;;;;10.42;81.95;102461.94;5066582;28;20033;-48
2021/10/13 06:21:43;;;;;;;8.88;1.92;;;;;;;10.45;82.45;102470.59;5073043;28;20033;-47
2021/10/13 06:24:09;;;;;;;9.43;1.80;;;;;;;10.47;82.68;102475.81;5072961;28;20028;-48
2021/10/13 06:26:34;;;;;;;9.40;1.38;;;;;;;10.50;82.67;102479.06;5073280;28;20490;-49
2021/10/13 06:28:59;;;;;;;14.48;1.90;;;;;;;10.51;82.46;102482.63;5067750;28;20524;-48
2021/10/13 06:31:26;;;;;;;10.10;2.25;;;;;;;10.53;82.08;102481.50;5074343;28;20040;-47
2021/10/13 06:33:52;;;;;;;16.52;1.85;;;;;;;10.59;82.85;102484.63;5055703;28;20024;-47
2021/10/13 06:36:18;;;;;;;7.18;1.38;;;;;;;10.61;81.22;102479.94;5052652;28;20097;-48
2021/10/13 06:38:43;;;;;;;10.40;1.30;;;;;;;10.71;81.25;102484.31;5050365;28;20051;-51
2021/10/13 06:41:09;;;;;;;10.95;1.73;;;;;;;10.73;80.95;102485.03;5051231;28;20041;-51
2021/10/13 06:43:36;;;;;;;12.10;1.88;;;;;;;10.76;80.67;102487.44;5055226;28;20028;-48
2021/10/13 06:46:01;;;;;;;11.53;3.13;;;;;;;10.80;80.87;102489.88;5062123;28;20025;-46
2021/10/13 06:48:27;;;;;;;8.40;1.83;;;;;;;10.88;80.17;102495.38;5062387;28;20463;-46
2021/10/13 06:50:52;;;;;;;12.05;1.77;;;;;;;11.13;81.04;102492.06;5072258;28;20095;-44
2021/10/13 06:53:18;;;;;;;10.32;1.50;;;;;;;11.25;79.49;102492.75;5056391;28;20039;-47
2021/10/13 06:55:43;;;;;;;7.65;1.50;;;;;;;11.45;79.66;102501.63;5066860;28;20032;-49
2021/10/13 06:58:09;;;;;;;9.52;1.30;;;;;;;11.62;78.25;102500.84;5070439;28;20032;-47
2021/10/13 07:00:35;;;;;;;11.55;1.88;;;;;;;11.70;77.07;102493.88;5071419;28;20050;-48
2021/10/13 07:03:00;;;;;;;11.75;2.03;;;;;;;11.79;76.21;102498.34;5055426;28;20021;-48
2021/10/13 07:05:25;;;;;;;8.70;1.60;;;;;;;11.87;76.74;102501.19;5052612;28;20067;-48
2021/10/13 07:07:51;;;;;;;4.70;1.30;;;;;;;11.93;75.51;102497.91;5069141;28;20017;-46
2021/10/13 07:10:17;;;;;;;9.48;1.85;;;;;;;11.93;75.97;102506.00;5061527;28;20165;-48
2021/10/13 07:12:43;;;;;;;7.82;1.30;;;;;;;12.03;76.20;102504.09;5053053;28;20029;-49
2021/10/13 07:15:09;;;;;;;9.75;1.20;;;;;;;12.13;75.11;102503.19;5052433;28;20051;-47
2021/10/13 07:17:34;;;;;;;8.43;1.60;;;;;;;12.26;75.31;102503.66;5067098;28;20043;-48
2021/10/13 07:20:01;;;;;;;8.70;2.05;;;;;;;12.36;74.16;102503.59;5065010;28;20016;-47
2021/10/13 07:22:27;;;;;;;11.33;1.80;;;;;;;12.53;74.07;102502.75;5042932;28;20022;-51
2021/10/13 07:24:53;;;;;;;5.93;1.27;;;;;;;12.63;73.98;102511.63;5044368;28;20446;-47
2021/10/13 07:27:19;;;;;;;3.10;0.88;;;;;;;12.68;73.88;102512.00;5070266;28;20120;-50
2021/10/13 07:29:46;;;;;;;7.95;1.55;;;;;;;12.64;73.46;102507.94;5071438;28;20025;-47
2021/10/13 07:32:11;;;;;;;4.70;1.40;;;;;;;12.47;73.66;102509.63;5072422;28;20388;-47
2021/10/13 07:34:37;;;;;;;7.15;1.50;;;;;;;12.37;74.51;102508.84;5057033;28;20048;-48
2021/10/13 07:37:03;;;;;;;7.10;1.30;;;;;;;12.35;74.08;102508.16;5071718;28;20429;-48
2021/10/13 07:39:29;;;;;;;8.95;1.70;;;;;;;12.26;73.76;102504.50;5056687;28;20028;-46
2021/10/13 07:41:54;;;;;;;5.28;1.27;;;;;;;12.21;73.79;102505.97;5050523;28;20040;-48
2021/10/13 07:44:20;;;;;;;8.75;1.30;;;;;;;12.16;74.28;102510.97;5038600;28;20058;-47
2021/10/13 07:46:45;;;;;;;11.15;1.60;;;;;;;12.12;73.99;102506.91;5072950;28;20094;-47
2021/10/13 07:49:11;;;;;;;8.38;2.60;;;;;;;12.13;73.98;102504.03;5065221;28;20041;-47
2021/10/13 07:51:36;;;;;;;5.22;1.50;;;;;;;12.32;74.96;102507.59;5052865;28;20438;-47
2021/10/13 07:54:01;;;;;;;4.90;1.45;;;;;;;12.72;74.50;102515.28;5051272;28;20032;-47
2021/10/13 07:56:27;;;;;;;8.85;1.45;;;;;;;12.86;73.47;102511.16;5078048;28;20026;-48
2021/10/13 07:58:52;;;;;;;5.50;1.10;;;;;;;12.85;73.63;102515.72;5056107;28;20068;-45
2021/10/13 08:01:17;;;;;;;9.10;1.08;;;;;;;12.85;71.69;102509.44;5064051;28;20135;-47
2021/10/13 08:03:42;;;;;;;9.00;2.08;;;;;;;12.88;72.76;102515.41;5072608;28;20024;-47
2021/10/13 08:06:09;;;;;;;14.77;1.92;;;;;;;12.84;72.53;102514.00;5072191;28;20041;-50
2021/10/13 08:08:34;;;;;;;9.93;1.13;;;;;;;12.85;72.31;102515.72;5084082;28;20028;-48
2021/10/13 08:11:00;;;;;;;14.88;1.35;;;;;;;12.82;71.79;102513.34;5081773;28;20021;-47
2021/10/13 08:13:25;;;;;;;13.55;1.67;;;;;;;12.82;72.30;102526.84;5028714;28;20027;-50
2021/10/13 08:15:50;;;;;;;12.07;1.50;;;;;;;12.76;73.02;102523.91;5059027;28;20029;-46
2021/10/13 08:18:16;;;;;;;10.25;1.65;;;;;;;12.75;71.98;102525.75;5060700;28;20031;-47
2021/10/13 08:20:41;;;;;;;4.70;1.30;;;;;;;12.82;71.80;102532.25;5092738;28;20035;-46
2021/10/13 08:23:06;;;;;;;10.48;1.70;;;;;;;12.96;70.33;102533.53;5077400;28;20024;-48
2021/10/13 08:25:32;;;;;;;11.57;1.80;;;;;;;13.13;68.61;102538.06;5072111;28;20032;-49
2021/10/13 08:27:57;;;;;;;12.13;1.58;;;;;;;13.13;68.22;102529.94;5061165;28;20324;-47
2021/10/13 08:30:22;;;;;;;4.03;1.08;;;;;;;13.26;67.65;102534.97;5077302;28;20032;-47
2021/10/13 08:32:48;;;;;;;10.20;1.23;;;;;;;13.36;67.39;102534.88;5071795;28;20039;-47
2021/10/13 08:35:13;;;;;;;8.98;1.40;;;;;;;13.59;64.46;102535.19;5072339;28;20035;-48
2021/10/13 08:37:38;;;;;;;6.93;2.05;;;;;;;13.95;64.40;102543.13;5069914;28;20044;-49
2021/10/13 08:40:06;;;;;;;7.22;1.60;;;;;;;14.17;62.09;102545.28;5066631;28;20075;-49
2021/10/13 08:42:33;;;;;;;4.13;1.10;;;;;;;14.40;62.41;102541.94;5048283;28;20094;-47
2021/10/13 08:44:58;;;;;;;15.27;1.60;;;;;;;14.74;63.33;102544.56;5070186;28;20028;-47
2021/10/13 08:47:24;;;;;;;7.72;1.23;;;;;;;15.12;61.31;102551.19;5048863;28;20024;-47
2021/10/13 08:49:51;;;;;;;8.98;1.50;;;;;;;14.89;63.10;102556.44;5059962;28;20063;-46
2021/10/13 08:52:17;;;;;;;5.77;1.37;;;;;;;14.59;64.19;102557.94;5037952;28;21065;-48
2021/10/13 08:54:42;;;;;;;3.72;0.98;;;;;;;14.22;65.09;102558.31;5052164;28;20292;-45
2021/10/13 08:57:21;;;;;;;13.27;1.40;;;;;;;13.79;67.76;102563.69;5079442;28;20025;-46
2021/10/13 08:59:48;;;;;;;9.90;1.83;;;;;;;13.42;67.98;102565.84;5080663;28;20052;-46
2021/10/13 09:02:15;;;;;;;8.60;1.75;;;;;;;13.40;69.92;102568.69;5043527;28;20021;-49
2021/10/13 09:05:08;;;;;;;9.05;1.50;;;;;;;13.46;69.91;102570.78;5071889;28;20360;-46
2021/10/13 09:07:35;;;;;;;8.82;1.25;;;;;;;13.30;68.65;102558.00;5057814;28;20542;-49
2021/10/13 09:10:00;;;;;;;5.38;1.38;;;;;;;13.25;68.04;102556.75;5056984;28;20028;-46
2021/10/13 09:12:37;;;;;;;9.27;1.30;;;;;;;13.27;68.09;102558.31;5054532;28;20054;-46
2021/10/13 09:15:12;;;;;;;7.60;1.52;;;;;;;13.28;66.34;102554.59;5073525;28;20032;-48
2021/10/13 09:18:01;;;;;;;5.32;0.90;;;;;;;13.46;65.52;102556.41;5071890;28;20052;-47
2021/10/13 09:20:29;;;;;;;5.90;1.10;;;;;;;13.75;64.56;102554.22;5037337;28;20079;-47
2021/10/13 09:23:01;;;;;;;7.38;1.13;;;;;;;13.96;63.16;102555.69;5057430;28;20028;-47
2021/10/13 09:25:26;;;;;;;5.63;1.00;;;;;;;14.20;63.52;102555.78;5071859;28;20103;-45
2021/10/13 09:27:52;;;;;;;3.38;1.20;;;;;;;14.86;60.18;102561.34;5071842;28;20111;-46
2021/10/13 09:30:25;;;;;;;6.57;1.02;;;;;;;15.20;59.54;102563.06;5070730;28;20020;-48
2021/10/13 09:32:50;;;;;;;5.05;0.82;;;;;;;15.55;57.76;102564.53;5066910;28;20033;-48
2021/10/13 09:35:26;;;;;;;5.28;0.88;;;;;;;15.77;55.64;102560.25;5058803;28;20051;-50
2021/10/13 09:37:51;;;;;;;3.90;0.63;;;;;;;15.77;55.08;102555.69;5078359;28;20037;-50
2021/10/13 09:40:32;;;;;;;12.27;4.95;;;;;;;15.70;56.61;102564.72;5052895;28;20385;-47
2021/10/13 09:43:01;;;;;;;7.15;1.30;;;;;;;15.46;57.15;102568.28;5070813;28;20048;-47
2021/10/13 09:45:27;;;;;;;3.88;0.70;;;;;;;15.19;56.48;102572.19;5062568;28;20391;-51
2021/10/13 09:47:58;;;;;;;3.60;0.90;;;;;;;14.97;57.54;102574.56;5041353;28;20032;-47
2021/10/13 09:50:36;;;;;;;4.60;1.00;;;;;;;14.78;57.94;102577.63;5055882;28;20111;-48
2021/10/13 09:53:25;;;;;;;2.97;0.88;;;;;;;14.62;57.89;102576.56;5072448;28;20032;-47
2021/10/13 09:55:50;;;;;;;7.07;1.08;;;;;;;14.55;58.66;102586.38;5086466;28;20089;-46
2021/10/13 09:58:27;;;;;;;4.18;0.90;;;;;;;14.48;58.34;102586.16;5092647;28;20032;-49
2021/10/13 10:01:10;;;;;;;4.60;1.00;;;;;;;14.49;59.39;102581.59;5056248;28;20462;-47
2021/10/13 10:03:37;;;;;;;6.15;1.30;;;;;;;14.60;59.03;102584.00;5031430;28;20047;-49
2021/10/13 10:06:03;;;;;;;7.35;1.38;;;;;;;14.61;59.53;102587.56;5043317;28;20024;-46
2021/10/13 10:08:29;;;;;;;10.18;1.48;;;;;;;14.76;58.89;102593.19;5071420;28;20450;-48
2021/10/13 10:11:05;;;;;;;3.95;1.02;;;;;;;14.86;60.23;102591.19;5074242;28;20041;-46
2021/10/13 10:13:40;;;;;;;4.82;1.70;;;;;;;15.00;59.46;102586.94;5062534;28;20379;-48
2021/10/13 10:16:06;;;;;;;8.32;1.52;;;;;;;15.18;58.72;102586.78;5076305;28;20074;-47
2021/10/13 10:18:32;;;;;;;3.78;1.73;;;;;;;15.28;58.86;102588.31;5054313;28;20121;-45
2021/10/13 10:21:19;;;;;;;5.13;1.27;;;;;;;15.15;59.22;102598.81;5074802;28;20043;-46
2021/10/13 10:23:50;;;;;;;6.50;1.45;;;;;;;15.04;57.16;102591.88;5068644;28;20021;-47
2021/10/13 10:26:24;;;;;;;10.98;1.42;;;;;;;15.00;56.89;102590.50;5050773;28;20029;-46
2021/10/13 10:28:49;;;;;;;6.90;1.42;;;;;;;14.95;58.42;102592.03;5069931;28;20039;-45
2021/10/13 10:31:27;;;;;;;8.20;1.95;;;;;;;14.97;57.81;102593.56;5066316;28;20542;-47
2021/10/13 10:34:07;;;;;;;7.15;0.98;;;;;;;14.85;59.17;102595.75;5059695;28;20028;-47
2021/10/13 10:36:37;;;;;;;5.65;1.20;;;;;;;14.93;58.05;102603.06;5050682;28;20025;-46
2021/10/13 10:39:08;;;;;;;6.60;1.20;;;;;;;14.90;57.42;102590.69;5068142;28;20028;-49
2021/10/13 10:41:54;;;;;;;7.03;1.10;;;;;;;14.88;56.79;102598.13;5046482;28;20106;-49
2021/10/13 10:44:32;;;;;;;4.47;0.90;;;;;;;14.94;56.67;102596.59;5057057;28;20040;-48
2021/10/13 10:46:57;;;;;;;;;;;;;;;15.18;56.97;102606.63;5075099;28;20029;-46
2021/10/13 10:49:43;;;;;;;2.97;0.80;;;;;;;15.41;55.00;102604.06;5054206;28;19920;-47
2021/10/13 10:52:10;;;;;;;2.80;0.90;;;;;;;15.44;54.88;102603.72;5055952;28;20037;-50
2021/10/13 10:54:35;;;;;;;6.32;1.10;;;;;;;15.52;54.09;102606.44;5059056;28;20031;-46
2021/10/13 10:57:00;;;;;;;4.65;1.02;;;;;;;15.47;53.76;102608.81;5073740;28;20025;-47
2021/10/13 10:59:38;;;;;;;4.93;1.20;;;;;;;15.46;54.58;102612.53;5073629;28;20102;-49
2021/10/13 11:02:07;;;;;;;6.47;1.00;;;;;;;15.52;53.37;102605.59;5060369;28;20040;-47
2021/10/13 11:04:32;;;;;;;4.10;0.82;;;;;;;15.62;53.98;102605.41;5057971;28;20032;-49
2021/10/13 11:07:00;;;;;;;7.78;1.30;;;;;;;15.66;53.41;102612.16;5071028;28;20024;-47
2021/10/13 11:09:26;;;;;;;5.90;1.17;;;;;;;15.55;53.20;102605.22;5074111;28;20491;-47
2021/10/13 11:11:51;;;;;;;4.65;1.30;;;;;;;15.42;54.17;102605.75;5068349;28;20142;-46
2021/10/13 11:14:27;;;;;;;5.15;1.17;;;;;;;15.36;53.69;102607.28;5055828;28;20483;-47
2021/10/13 11:16:57;;;;;;;6.68;0.90;;;;;;;15.40;54.19;102613.22;5056594;28;20070;-47
2021/10/13 11:19:34;;;;;;;3.15;1.13;;;;;;;15.53;54.49;102621.72;5069554;28;20028;-47
2021/10/13 11:22:03;;;;;;;2.78;0.95;;;;;;;15.52;54.25;102627.28;5068664;28;20032;-48
2021/10/13 11:24:30;;;;;;;2.83;0.77;;;;;;;15.68;52.64;102610.97;5055486;28;20405;-47
2021/10/13 11:26:55;;;;;;;3.22;0.80;;;;;;;15.56;51.85;102613.22;5070447;28;20147;-45
2021/10/13 11:29:24;;;;;;;1.90;0.85;;;;;;;15.58;52.78;102616.59;5078754;28;20127;-50
2021/10/13 11:32:06;;;;;;;2.92;0.90;;;;;;;15.65;53.06;102618.63;5072461;28;20024;-46